createdAt,value
2023-05-23T00:02:00.396Z,97541.34
2023-05-23T00:04:27.443Z,97542.88
2023-05-23T00:06:54.244Z,97562.03
2023-05-23T00:09:21.042Z,97553.41
2023-05-23T00:11:47.681Z,97564.34
2023-05-23T00:14:15.226Z,97557.25
2023-05-23T00:16:44.054Z,97550.19
2023-05-23T00:19:11.945Z,97569.19
2023-05-23T00:21:38.673Z,97566.09
2023-05-23T00:24:05.732Z,97567.94
2023-05-23T00:26:32.447Z,97563.56
2023-05-23T00:28:59.184Z,97565.13
2023-05-23T00:31:26.161Z,97560.31
2023-05-23T00:33:52.785Z,97565.13
2023-05-23T00:36:19.517Z,97568.88
2023-05-23T00:38:46.320Z,97557.31
2023-05-23T00:41:12.921Z,97561.97
2023-05-23T00:43:39.476Z,97536.25
2023-05-23T00:46:06.242Z,97560.34
2023-05-23T00:48:33.114Z,97562.63
2023-05-23T00:50:59.712Z,97513.25
2023-05-23T00:53:26.809Z,97554.22
2023-05-23T00:55:53.492Z,97565.44
2023-05-23T00:58:20.071Z,97565.06
2023-05-23T01:00:48.562Z,97571.38
2023-05-23T01:03:18.439Z,97567.25
2023-05-23T01:05:45.379Z,97562.75
2023-05-23T01:08:12.129Z,97571.47
2023-05-23T01:10:38.988Z,97566.81
2023-05-23T01:13:26.065Z,97572.00
2023-05-23T01:16:06.090Z,97585.41
2023-05-23T01:18:57.897Z,97581.28
2023-05-23T01:21:24.999Z,97570.69
2023-05-23T01:24:08.742Z,97579.69
2023-05-23T01:26:53.584Z,97582.09
2023-05-23T01:29:27.456Z,97573.19
2023-05-23T01:31:58.112Z,97555.56
2023-05-23T01:34:24.949Z,97558.63
2023-05-23T01:36:56.123Z,97563.56
2023-05-23T01:39:23.553Z,97561.41
2023-05-23T01:41:51.603Z,97571.25
2023-05-23T01:44:21.009Z,97579.81
2023-05-23T01:46:48.605Z,97568.91
2023-05-23T01:49:16.263Z,97576.22
2023-05-23T01:51:43.146Z,97571.09
2023-05-23T01:54:09.840Z,97572.25
2023-05-23T01:56:36.551Z,97570.66
2023-05-23T01:59:03.696Z,97588.81
2023-05-23T02:01:30.827Z,97567.94
2023-05-23T02:03:58.413Z,97569.25
2023-05-23T02:06:25.040Z,97588.97
2023-05-23T02:08:51.737Z,97585.97
2023-05-23T02:11:18.320Z,97583.78
2023-05-23T02:13:44.932Z,97582.69
2023-05-23T02:16:11.672Z,97589.50
2023-05-23T02:18:39.661Z,97592.31
2023-05-23T02:21:06.494Z,97593.88
2023-05-23T02:23:33.198Z,97592.22
2023-05-23T02:25:59.844Z,97560.25
2023-05-23T02:28:26.538Z,97588.34
2023-05-23T02:30:53.258Z,97586.28
2023-05-23T02:33:19.942Z,97582.00
2023-05-23T02:35:46.581Z,97591.06
2023-05-23T02:38:14.772Z,97589.94
2023-05-23T02:40:41.863Z,97586.41
2023-05-23T02:43:08.484Z,97578.75
2023-05-23T02:45:35.773Z,97591.25
2023-05-23T02:48:03.577Z,97574.28
2023-05-23T02:50:30.342Z,97575.16
2023-05-23T02:52:56.969Z,97587.66
2023-05-23T02:55:23.632Z,97593.84
2023-05-23T02:57:51.308Z,97601.22
2023-05-23T03:00:18.482Z,97595.22
2023-05-23T03:02:49.858Z,97601.41
2023-05-23T03:05:16.803Z,97599.41
2023-05-23T03:07:44.065Z,97596.91
2023-05-23T03:10:11.023Z,97593.84
2023-05-23T03:12:38.218Z,97585.38
2023-05-23T03:15:05.440Z,97594.19
2023-05-23T03:17:32.322Z,97609.16
2023-05-23T03:19:58.978Z,97590.75
2023-05-23T03:22:25.762Z,97598.59
2023-05-23T03:24:52.286Z,97601.41
2023-05-23T03:27:18.909Z,97586.34
2023-05-23T03:29:45.577Z,97600.97
2023-05-23T03:32:13.259Z,97604.84
2023-05-23T03:34:39.881Z,97603.97
2023-05-23T03:37:06.476Z,97614.78
2023-05-23T03:39:33.032Z,97616.03
2023-05-23T03:41:59.695Z,97612.06
2023-05-23T03:44:26.691Z,97620.09
2023-05-23T03:46:53.317Z,97621.56
2023-05-23T03:49:20.484Z,97615.22
2023-05-23T03:51:47.073Z,97616.13
2023-05-23T03:54:17.673Z,97615.69
2023-05-23T03:56:44.335Z,97612.16
2023-05-23T03:59:10.945Z,97617.59
2023-05-23T04:01:37.602Z,97610.56
2023-05-23T04:04:04.900Z,97611.00
2023-05-23T04:06:34.042Z,97609.88
2023-05-23T04:09:01.233Z,97612.94
2023-05-23T04:11:28.389Z,97609.16
2023-05-23T04:13:55.052Z,97616.38
2023-05-23T04:16:23.896Z,97615.56
2023-05-23T04:18:51.885Z,97607.47
2023-05-23T04:21:18.760Z,97587.16
2023-05-23T04:23:58.324Z,97609.31
2023-05-23T04:26:25.452Z,97583.97
2023-05-23T04:28:54.304Z,97623.41
2023-05-23T04:31:22.327Z,97600.25
2023-05-23T04:33:49.289Z,97613.44
2023-05-23T04:36:18.193Z,97619.78
2023-05-23T04:38:50.002Z,97609.94
2023-05-23T04:41:16.721Z,97615.47
2023-05-23T04:44:02.563Z,97620.59
2023-05-23T04:46:37.167Z,97625.69
2023-05-23T04:49:12.917Z,97618.13
2023-05-23T04:51:39.701Z,97629.13
2023-05-23T04:54:18.178Z,97624.31
2023-05-23T04:56:45.025Z,97639.59
2023-05-23T04:59:11.834Z,97638.41
2023-05-23T05:01:41.467Z,97646.66
2023-05-23T05:04:09.229Z,97643.47
2023-05-23T05:06:36.578Z,97652.03
2023-05-23T05:09:03.186Z,97643.13
2023-05-23T05:11:30.104Z,97654.03
2023-05-23T05:13:56.781Z,97650.53
2023-05-23T05:16:24.176Z,97647.44
2023-05-23T05:18:51.403Z,97653.69
2023-05-23T05:21:19.215Z,97641.97
2023-05-23T05:23:46.168Z,97652.19
2023-05-23T05:26:15.609Z,97642.44
2023-05-23T05:28:42.363Z,97654.78
2023-05-23T05:31:10.150Z,97659.50
2023-05-23T05:33:37.657Z,97661.09
2023-05-23T05:36:10.680Z,97658.34
2023-05-23T05:38:37.800Z,97665.16
2023-05-23T05:41:04.724Z,97669.91
2023-05-23T05:43:39.074Z,97660.03
2023-05-23T05:46:05.886Z,97661.28
2023-05-23T05:48:32.828Z,97669.56
2023-05-23T05:51:03.937Z,97662.50
2023-05-23T05:53:33.064Z,97671.66
2023-05-23T05:55:59.760Z,97674.16
2023-05-23T05:58:26.541Z,97665.97
2023-05-23T06:00:59.139Z,97659.22
2023-05-23T06:03:26.428Z,97665.69
2023-05-23T06:05:56.273Z,97674.75
2023-05-23T06:08:23.133Z,97666.53
2023-05-23T06:10:49.774Z,97656.41
2023-05-23T06:13:16.621Z,97666.28
2023-05-23T06:15:46.680Z,97659.59
2023-05-23T06:18:13.974Z,97665.13
2023-05-23T06:20:41.194Z,97674.56
2023-05-23T06:23:12.766Z,97654.84
2023-05-23T06:25:40.132Z,97677.22
2023-05-23T06:28:06.831Z,97679.50
2023-05-23T06:30:37.486Z,97681.25
2023-05-23T06:33:04.772Z,97679.25
2023-05-23T06:35:31.469Z,97685.41
2023-05-23T06:38:00.867Z,97678.19
2023-05-23T06:40:27.421Z,97671.94
2023-05-23T06:42:54.086Z,97691.31
2023-05-23T06:45:49.700Z,97687.69
2023-05-23T06:48:16.410Z,97682.94
2023-05-23T06:50:44.410Z,97684.97
2023-05-23T06:53:12.126Z,97700.84
2023-05-23T06:55:40.415Z,97698.94
2023-05-23T06:58:09.005Z,97699.03
2023-05-23T07:00:38.317Z,97708.81
2023-05-23T07:03:12.834Z,97711.56
2023-05-23T07:05:41.163Z,97710.41
2023-05-23T07:08:11.276Z,97706.78
2023-05-23T07:10:41.647Z,97718.59
2023-05-23T07:13:21.804Z,97723.19
2023-05-23T07:15:48.476Z,97721.25
2023-05-23T07:18:15.222Z,97726.22
2023-05-23T07:20:42.122Z,97727.72
2023-05-23T07:23:15.995Z,97718.63
2023-05-23T07:25:53.802Z,97721.34
2023-05-23T07:28:29.177Z,97726.56
2023-05-23T07:30:58.259Z,97725.56
2023-05-23T07:33:25.301Z,97735.44
2023-05-23T07:35:55.222Z,97729.97
2023-05-23T07:38:21.978Z,97748.81
2023-05-23T07:40:58.860Z,97731.59
2023-05-23T07:43:29.652Z,97743.06
2023-05-23T07:45:56.276Z,97735.84
2023-05-23T07:48:22.913Z,97743.31
2023-05-23T07:50:49.615Z,97740.94
2023-05-23T07:53:16.698Z,97745.34
2023-05-23T07:55:43.271Z,97742.44
2023-05-23T07:58:10.246Z,97751.59
2023-05-23T08:00:37.001Z,97734.50
2023-05-23T08:03:11.941Z,97747.63
2023-05-23T08:05:48.429Z,97733.81
2023-05-23T08:08:15.163Z,97749.31
2023-05-23T08:10:42.037Z,97739.44
2023-05-23T08:13:16.442Z,97758.22
2023-05-23T08:15:59.842Z,97764.94
2023-05-23T08:18:30.816Z,97755.34
2023-05-23T08:20:57.546Z,97751.94
2023-05-23T08:23:24.210Z,97766.94
2023-05-23T08:25:51.685Z,97769.47
2023-05-23T08:28:18.420Z,97752.38
2023-05-23T08:30:51.813Z,97758.28
2023-05-23T08:33:18.491Z,97765.59
2023-05-23T08:35:47.477Z,97771.72
2023-05-23T08:38:15.774Z,97771.97
2023-05-23T08:41:01.479Z,97741.56
2023-05-23T08:43:29.966Z,97782.34
2023-05-23T08:45:57.405Z,97794.00
2023-05-23T08:48:27.086Z,97785.84
2023-05-23T08:50:55.062Z,97778.88
2023-05-23T08:53:24.873Z,97791.59
2023-05-23T08:56:03.168Z,97794.69
2023-05-23T08:58:40.770Z,97803.66
2023-05-23T09:01:09.674Z,97792.56
2023-05-23T09:03:42.411Z,97801.94
2023-05-23T09:06:15.926Z,97805.69
2023-05-23T09:08:45.967Z,97811.75
2023-05-23T09:11:14.706Z,97817.22
2023-05-23T09:13:43.337Z,97813.59
2023-05-23T09:16:13.542Z,97809.53
2023-05-23T09:18:48.069Z,97817.91
2023-05-23T09:21:16.600Z,97822.81
2023-05-23T09:23:52.362Z,97827.69
2023-05-23T09:26:18.999Z,97821.53
2023-05-23T09:28:45.721Z,97821.53
2023-05-23T09:31:13.010Z,97821.53
2023-05-23T09:33:43.354Z,97825.31
2023-05-23T09:36:10.027Z,97822.06
2023-05-23T09:38:41.539Z,97835.19
2023-05-23T09:41:12.321Z,97836.78
2023-05-23T09:43:40.666Z,97830.75
2023-05-23T09:46:11.376Z,97810.91
2023-05-23T09:48:38.973Z,97827.50
2023-05-23T09:51:06.874Z,97842.69
2023-05-23T09:53:33.660Z,97835.56
2023-05-23T09:56:02.153Z,97830.47
2023-05-23T09:58:30.214Z,97821.47
2023-05-23T10:00:58.230Z,97820.53
2023-05-23T10:03:30.879Z,97835.84
2023-05-23T10:06:01.610Z,97824.00
2023-05-23T10:08:39.164Z,97812.97
2023-05-23T10:11:16.460Z,97836.53
2023-05-23T10:13:44.596Z,97826.84
2023-05-23T10:16:29.175Z,97836.47
2023-05-23T10:18:58.403Z,97827.81
2023-05-23T10:21:32.468Z,97836.00
2023-05-23T10:24:04.545Z,97847.13
2023-05-23T10:26:31.604Z,97844.84
2023-05-23T10:29:01.802Z,97836.75
2023-05-23T10:31:29.544Z,97835.41
2023-05-23T10:34:30.089Z,97841.75
2023-05-23T10:37:02.702Z,97831.34
2023-05-23T10:39:55.188Z,97835.94
2023-05-23T10:42:46.062Z,97839.28
2023-05-23T10:45:21.279Z,97831.63
2023-05-23T10:47:51.223Z,97828.97
2023-05-23T10:50:37.574Z,97835.66
2023-05-23T10:53:05.867Z,97823.41
2023-05-23T10:55:34.864Z,97840.88
2023-05-23T10:58:11.894Z,97835.63
2023-05-23T11:00:38.546Z,97837.31
2023-05-23T11:03:09.298Z,97828.75
2023-05-23T11:05:38.829Z,97813.84
2023-05-23T11:08:18.533Z,97828.13
2023-05-23T11:11:01.609Z,97826.91
2023-05-23T11:14:00.466Z,97832.19
2023-05-23T11:16:44.625Z,97831.06
2023-05-23T11:19:20.986Z,97839.72
2023-05-23T11:21:52.990Z,97831.78
2023-05-23T11:24:19.768Z,97833.44
2023-05-23T11:27:04.040Z,97829.31
2023-05-23T11:29:30.890Z,97822.94
2023-05-23T11:31:57.631Z,97829.78
2023-05-23T11:34:27.502Z,97823.25
2023-05-23T11:36:55.717Z,97822.72
2023-05-23T11:39:23.166Z,97815.75
2023-05-23T11:42:03.303Z,97826.19
2023-05-23T11:44:30.530Z,97793.78
2023-05-23T11:47:05.190Z,97825.53
2023-05-23T11:49:36.336Z,97833.25
2023-05-23T11:52:03.423Z,97823.59
2023-05-23T11:54:30.202Z,97811.69
2023-05-23T11:56:57.579Z,97820.56
2023-05-23T11:59:28.901Z,97829.88
2023-05-23T12:01:55.927Z,97810.16
2023-05-23T12:04:22.774Z,97822.03
2023-05-23T12:06:49.970Z,97822.19
2023-05-23T12:09:16.908Z,97819.56
2023-05-23T12:11:44.889Z,97805.38
2023-05-23T12:14:16.571Z,97808.06
2023-05-23T12:16:47.349Z,97805.03
2023-05-23T12:19:14.901Z,97806.59
2023-05-23T12:21:48.519Z,97789.97
2023-05-23T12:24:21.905Z,97821.09
2023-05-23T12:26:53.962Z,97820.06
2023-05-23T12:29:40.753Z,97796.41
2023-05-23T12:32:07.581Z,97796.59
2023-05-23T12:34:34.277Z,97813.22
2023-05-23T12:39:34.485Z,97805.53
2023-05-23T12:42:11.231Z,97803.44
2023-05-23T12:44:37.972Z,97796.31
2023-05-23T12:47:04.857Z,97788.44
2023-05-23T12:49:31.484Z,97795.97
2023-05-23T12:51:58.182Z,97785.72
2023-05-23T12:54:24.813Z,97791.16
2023-05-23T12:56:51.407Z,97783.09
2023-05-23T12:59:18.118Z,97788.44
2023-05-23T13:01:44.804Z,97792.09
2023-05-23T13:04:11.608Z,97783.78
2023-05-23T13:06:38.307Z,97786.41
2023-05-23T13:09:05.101Z,97787.94
2023-05-23T13:11:31.794Z,97783.56
2023-05-23T13:13:58.436Z,97789.81
2023-05-23T13:16:25.047Z,97790.53
2023-05-23T13:18:52.568Z,97789.41
2023-05-23T13:21:19.534Z,97789.03
2023-05-23T13:23:46.220Z,97778.00
2023-05-23T13:26:14.570Z,97790.03
2023-05-23T13:28:41.282Z,97785.31
2023-05-23T13:31:07.970Z,97764.09
2023-05-23T13:33:34.765Z,97773.69
2023-05-23T13:36:01.441Z,97783.13
2023-05-23T13:38:30.795Z,97766.09
2023-05-23T13:40:57.491Z,97771.13
2023-05-23T13:43:24.331Z,97784.44
2023-05-23T13:45:50.934Z,97791.38
2023-05-23T13:48:17.594Z,97787.19
2023-05-23T13:50:45.219Z,97789.47
2023-05-23T13:53:19.226Z,97775.09
2023-05-23T13:55:46.528Z,97788.38
2023-05-23T13:58:13.215Z,97767.13
2023-05-23T14:00:40.579Z,97780.78
2023-05-23T14:03:08.724Z,97785.03
2023-05-23T14:05:36.371Z,97792.75
2023-05-23T14:08:04.512Z,97788.94
2023-05-23T14:10:33.256Z,97762.69
2023-05-23T14:12:59.937Z,97781.41
2023-05-23T14:15:26.989Z,97783.56
2023-05-23T14:17:55.442Z,97792.84
2023-05-23T14:20:22.824Z,97795.09
2023-05-23T14:22:50.247Z,97788.47
2023-05-23T14:25:17.705Z,97781.41
2023-05-23T14:27:44.661Z,97786.00
2023-05-23T14:30:11.722Z,97769.13
2023-05-23T14:32:41.522Z,97785.78
2023-05-23T14:35:11.044Z,97786.31
2023-05-23T14:37:37.821Z,97800.69
2023-05-23T14:40:05.673Z,97779.09
2023-05-23T14:42:32.601Z,97786.25
2023-05-23T14:44:59.198Z,97789.03
2023-05-23T14:47:25.885Z,97781.69
2023-05-23T14:49:52.653Z,97792.25
2023-05-23T14:52:22.388Z,97787.16
2023-05-23T14:54:49.273Z,97780.59
2023-05-23T14:57:15.944Z,97772.41
2023-05-23T14:59:42.591Z,97797.25
2023-05-23T15:02:09.360Z,97787.53
2023-05-23T15:04:36.577Z,97783.50
2023-05-23T15:07:03.593Z,97780.81
2023-05-23T15:09:30.190Z,97786.84
2023-05-23T15:11:56.876Z,97778.19
2023-05-23T15:14:28.987Z,97777.81
2023-05-23T15:16:56.465Z,97775.44
2023-05-23T15:19:23.138Z,97777.81
2023-05-23T15:21:51.406Z,97774.72
2023-05-23T15:24:18.737Z,97777.00
2023-05-23T15:26:45.477Z,97778.97
2023-05-23T15:29:13.257Z,97759.00
2023-05-23T15:31:40.065Z,97774.66
2023-05-23T15:34:06.728Z,97764.44
2023-05-23T15:36:33.309Z,97768.34
2023-05-23T15:38:59.951Z,97767.63
2023-05-23T15:41:26.607Z,97774.38
2023-05-23T15:43:53.323Z,97763.72
2023-05-23T15:46:20.201Z,97770.59
2023-05-23T15:48:46.881Z,97763.88
2023-05-23T15:51:13.751Z,97768.22
2023-05-23T15:53:59.041Z,97776.44
2023-05-23T15:56:27.931Z,97769.25
2023-05-23T15:58:55.317Z,97769.91
2023-05-23T16:01:21.959Z,97770.72
2023-05-23T16:03:48.805Z,97758.75
2023-05-23T16:06:15.884Z,97776.13
2023-05-23T16:08:42.611Z,97771.34
2023-05-23T16:11:09.321Z,97773.41
2023-05-23T16:13:36.058Z,97774.91
2023-05-23T16:16:04.324Z,97769.72
2023-05-23T16:18:31.149Z,97760.44
2023-05-23T16:20:57.822Z,97763.16
2023-05-23T16:23:24.482Z,97759.72
2023-05-23T16:25:51.291Z,97764.91
2023-05-23T16:28:18.391Z,97741.16
2023-05-23T16:30:45.246Z,97761.84
2023-05-23T16:33:11.966Z,97762.19
2023-05-23T16:35:38.899Z,97763.63
2023-05-23T16:38:05.769Z,97767.44
2023-05-23T16:40:32.470Z,97767.88
2023-05-23T16:42:59.288Z,97762.41
2023-05-23T16:45:25.892Z,97766.38
2023-05-23T16:47:52.585Z,97765.53
2023-05-23T16:50:19.314Z,97763.00
2023-05-23T16:52:46.064Z,97741.56
2023-05-23T16:55:12.716Z,97752.09
2023-05-23T16:57:39.825Z,97759.94
2023-05-23T17:00:07.496Z,97761.69
2023-05-23T17:02:34.256Z,97773.00
2023-05-23T17:05:01.459Z,97772.47
2023-05-23T17:07:28.027Z,97772.59
2023-05-23T17:09:54.751Z,97773.56
2023-05-23T17:12:21.909Z,97765.41
2023-05-23T17:14:49.092Z,97774.41
2023-05-23T17:17:16.037Z,97783.53
2023-05-23T17:19:42.756Z,97785.47
2023-05-23T17:22:09.558Z,97783.34
2023-05-23T17:24:36.973Z,97787.16
2023-05-23T17:27:04.130Z,97794.56
2023-05-23T17:29:31.375Z,97786.25
2023-05-23T17:31:58.084Z,97788.09
2023-05-23T17:34:24.758Z,97795.44
2023-05-23T17:36:52.746Z,97787.75
2023-05-23T17:39:19.788Z,97797.88
2023-05-23T17:41:46.721Z,97783.03
2023-05-23T17:44:13.405Z,97766.47
2023-05-23T17:46:40.106Z,97794.41
2023-05-23T17:49:07.245Z,97801.13
2023-05-23T17:51:33.878Z,97795.13
2023-05-23T17:54:00.830Z,97800.16
2023-05-23T17:56:27.548Z,97795.59
2023-05-23T17:58:54.198Z,97801.66
2023-05-23T18:01:20.932Z,97779.56
2023-05-23T18:03:48.891Z,97798.25
2023-05-23T18:06:15.835Z,97798.69
2023-05-23T18:08:42.448Z,97801.78
2023-05-23T18:11:09.106Z,97810.66
2023-05-23T18:13:35.757Z,97810.59
2023-05-23T18:16:02.467Z,97815.69
2023-05-23T18:18:29.155Z,97813.34
2023-05-23T18:20:56.374Z,97816.78
2023-05-23T18:23:23.083Z,97815.19
2023-05-23T18:25:49.738Z,97789.38
2023-05-23T18:28:16.543Z,97821.38
2023-05-23T18:30:43.330Z,97820.13
2023-05-23T18:33:10.534Z,97826.66
2023-05-23T18:35:37.252Z,97824.22
2023-05-23T18:38:04.097Z,97827.66
2023-05-23T18:40:31.300Z,97825.06
2023-05-23T18:42:57.996Z,97830.72
2023-05-23T18:45:24.689Z,97825.06
2023-05-23T18:47:51.468Z,97827.38
2023-05-23T18:50:18.709Z,97830.38
2023-05-23T18:52:45.475Z,97837.00
2023-05-23T18:55:14.862Z,97833.13
2023-05-23T18:57:41.480Z,97847.22
2023-05-23T19:00:09.140Z,97841.13
2023-05-23T19:02:36.020Z,97856.00
2023-05-23T19:05:02.981Z,97854.78
2023-05-23T19:07:29.703Z,97847.56
2023-05-23T19:09:56.553Z,97853.72
2023-05-23T19:12:26.006Z,97858.25
2023-05-23T19:14:52.868Z,97870.09
2023-05-23T19:17:19.645Z,97864.06
2023-05-23T19:19:46.454Z,97875.16
2023-05-23T19:22:13.321Z,97868.56
2023-05-23T19:24:40.086Z,97867.50
2023-05-23T19:27:06.790Z,97879.41
2023-05-23T19:29:33.584Z,97875.38
2023-05-23T19:32:00.338Z,97891.41
2023-05-23T19:34:27.371Z,97891.53
2023-05-23T19:36:54.077Z,97905.06
2023-05-23T19:39:21.431Z,97909.84
2023-05-23T19:41:48.175Z,97897.16
2023-05-23T19:44:14.841Z,97915.13
2023-05-23T19:46:41.513Z,97905.13
2023-05-23T19:49:08.926Z,97916.25
2023-05-23T19:51:36.801Z,97905.13
2023-05-23T19:54:03.673Z,97918.44
2023-05-23T19:56:30.624Z,97922.97
2023-05-23T19:58:57.309Z,97932.50
2023-05-23T20:01:24.139Z,97931.59
2023-05-23T20:03:50.871Z,97930.66
2023-05-23T20:06:17.495Z,97935.91
2023-05-23T20:08:44.232Z,97944.31
2023-05-23T20:11:12.471Z,97940.78
2023-05-23T20:13:39.200Z,97943.38
2023-05-23T20:16:07.863Z,97941.25
2023-05-23T20:18:34.636Z,97940.53
2023-05-23T20:21:03.499Z,97936.06
2023-05-23T20:23:32.140Z,97939.50
2023-05-23T20:25:58.852Z,97944.16
2023-05-23T20:28:25.608Z,97944.03
2023-05-23T20:30:52.441Z,97954.94
2023-05-23T20:33:19.569Z,97948.22
2023-05-23T20:35:48.346Z,97946.41
2023-05-23T20:38:15.337Z,97948.31
2023-05-23T20:40:42.231Z,97952.22
2023-05-23T20:43:10.384Z,97961.19
2023-05-23T20:45:37.018Z,97953.91
2023-05-23T20:48:03.810Z,97951.38
2023-05-23T20:50:32.389Z,97964.56
2023-05-23T20:53:02.008Z,97955.47
2023-05-23T20:55:29.389Z,97958.28
2023-05-23T20:57:56.096Z,97970.31
2023-05-23T21:00:22.770Z,97992.16
2023-05-23T21:02:49.504Z,97984.75
2023-05-23T21:05:16.385Z,97981.94
2023-05-23T21:07:43.048Z,97986.00
2023-05-23T21:10:10.007Z,97976.53
2023-05-23T21:12:36.617Z,97985.69
2023-05-23T21:15:03.408Z,97993.19
2023-05-23T21:17:30.190Z,97993.84
2023-05-23T21:19:56.881Z,97992.59
2023-05-23T21:22:23.487Z,97984.50
2023-05-23T21:24:50.584Z,97985.94
2023-05-23T21:27:17.297Z,97994.59
2023-05-23T21:29:43.933Z,97998.09
2023-05-23T21:32:10.585Z,98002.44
2023-05-23T21:34:37.187Z,98007.88
2023-05-23T21:37:03.922Z,98005.47
2023-05-23T21:39:42.965Z,98002.81
2023-05-23T21:42:17.261Z,98000.28
2023-05-23T21:44:43.910Z,98011.44
2023-05-23T21:47:10.605Z,98012.38
2023-05-23T21:49:38.020Z,98006.22
2023-05-23T21:52:05.027Z,98009.44
2023-05-23T21:54:31.641Z,98011.88
2023-05-23T21:56:58.337Z,98007.16
2023-05-23T21:59:24.903Z,98008.13
2023-05-23T22:01:51.582Z,98010.22
2023-05-23T22:04:21.263Z,98016.00
2023-05-23T22:06:47.933Z,98006.63
2023-05-23T22:09:15.395Z,98013.94
2023-05-23T22:11:42.475Z,98017.94
2023-05-23T22:14:09.815Z,98020.53
2023-05-23T22:16:39.599Z,98022.31
2023-05-23T22:19:07.826Z,98024.88
2023-05-23T22:21:34.524Z,98016.63
2023-05-23T22:24:01.163Z,98012.97
2023-05-23T22:26:28.122Z,98000.97
2023-05-23T22:28:55.204Z,98019.19
2023-05-23T22:31:22.060Z,98014.88
2023-05-23T22:33:48.755Z,98030.81
2023-05-23T22:36:15.776Z,98010.28
2023-05-23T22:38:42.526Z,98027.50
2023-05-23T22:41:09.152Z,98018.56
2023-05-23T22:43:35.865Z,98020.31
2023-05-23T22:46:02.583Z,98021.16
2023-05-23T22:48:33.724Z,98014.19
2023-05-23T22:51:02.051Z,98007.19
2023-05-23T22:53:29.387Z,98019.13
2023-05-23T22:55:56.384Z,98006.56
2023-05-23T22:58:23.025Z,98011.50
2023-05-23T23:00:49.776Z,98017.88
2023-05-23T23:03:16.578Z,97977.78
2023-05-23T23:05:44.296Z,98018.97
2023-05-23T23:08:10.967Z,97997.44
2023-05-23T23:10:37.651Z,98010.66
2023-05-23T23:13:04.247Z,98015.31
2023-05-23T23:15:33.897Z,98008.28
2023-05-23T23:18:01.226Z,98016.09
2023-05-23T23:20:28.372Z,98005.25
2023-05-23T23:22:55.180Z,98014.31
2023-05-23T23:25:21.950Z,98011.94
2023-05-23T23:27:48.689Z,98003.00
2023-05-23T23:30:15.574Z,98009.72
2023-05-23T23:32:42.242Z,98010.19
2023-05-23T23:35:09.155Z,98007.97
2023-05-23T23:37:35.836Z,97997.56
2023-05-23T23:40:02.573Z,98004.91
2023-05-23T23:42:29.252Z,98004.94
2023-05-23T23:44:56.170Z,98004.47
2023-05-23T23:47:22.849Z,98008.13
2023-05-23T23:49:49.475Z,98012.78
2023-05-23T23:52:16.221Z,98009.91
2023-05-23T23:54:42.913Z,98007.03
2023-05-23T23:57:13.829Z,98011.50
2023-05-23T23:59:43.819Z,97992.50
